sensor_id;sensor_type;location;lat;lon;timestamp;P1;durP1;ratioP1;P2;durP2;ratioP2
27839;SDS011;15207;42.182;24.308;2023-05-07T00:00:36;5.80;;;4.60;;
27839;SDS011;15207;42.182;24.308;2023-05-07T00:03:02;5.70;;;4.37;;
27839;SDS011;15207;42.182;24.308;2023-05-07T00:05:28;8.40;;;4.90;;
27839;SDS011;15207;42.182;24.308;2023-05-07T00:07:54;6.90;;;4.60;;
27839;SDS011;15207;42.182;24.308;2023-05-07T00:10:20;7.95;;;5.10;;
27839;SDS011;15207;42.182;24.308;2023-05-07T00:12:46;8.55;;;5.07;;
27839;SDS011;15207;42.182;24.308;2023-05-07T00:15:11;7.20;;;5.15;;
27839;SDS011;15207;42.182;24.308;2023-05-07T00:17:37;8.05;;;5.05;;
27839;SDS011;15207;42.182;24.308;2023-05-07T00:20:03;7.25;;;5.40;;
27839;SDS011;15207;42.182;24.308;2023-05-07T00:22:30;7.05;;;4.90;;
27839;SDS011;15207;42.182;24.308;2023-05-07T00:24:56;6.80;;;5.30;;
27839;SDS011;15207;42.182;24.308;2023-05-07T00:27:22;7.47;;;4.30;;
27839;SDS011;15207;42.182;24.308;2023-05-07T00:29:47;8.95;;;5.15;;
27839;SDS011;15207;42.182;24.308;2023-05-07T00:32:15;8.68;;;4.85;;
27839;SDS011;15207;42.182;24.308;2023-05-07T00:34:40;7.40;;;5.65;;
27839;SDS011;15207;42.182;24.308;2023-05-07T00:37:06;8.30;;;5.30;;
27839;SDS011;15207;42.182;24.308;2023-05-07T00:39:34;7.00;;;4.90;;
27839;SDS011;15207;42.182;24.308;2023-05-07T00:42:00;9.20;;;5.43;;
27839;SDS011;15207;42.182;24.308;2023-05-07T00:44:27;8.13;;;5.45;;
27839;SDS011;15207;42.182;24.308;2023-05-07T00:46:54;8.20;;;5.25;;
27839;SDS011;15207;42.182;24.308;2023-05-07T00:49:21;6.75;;;4.90;;
27839;SDS011;15207;42.182;24.308;2023-05-07T00:51:48;6.70;;;5.20;;
27839;SDS011;15207;42.182;24.308;2023-05-07T00:54:14;8.40;;;5.45;;
27839;SDS011;15207;42.182;24.308;2023-05-07T00:56:40;8.02;;;5.30;;
27839;SDS011;15207;42.182;24.308;2023-05-07T00:59:06;7.30;;;5.20;;
27839;SDS011;15207;42.182;24.308;2023-05-07T01:01:31;8.57;;;5.00;;
27839;SDS011;15207;42.182;24.308;2023-05-07T01:03:57;6.55;;;5.15;;
27839;SDS011;15207;42.182;24.308;2023-05-07T01:06:23;9.50;;;5.20;;
27839;SDS011;15207;42.182;24.308;2023-05-07T01:08:50;7.90;;;5.30;;
27839;SDS011;15207;42.182;24.308;2023-05-07T01:11:18;8.63;;;5.60;;
27839;SDS011;15207;42.182;24.308;2023-05-07T01:16:13;11.27;;;5.73;;
27839;SDS011;15207;42.182;24.308;2023-05-07T01:18:39;9.50;;;5.60;;
27839;SDS011;15207;42.182;24.308;2023-05-07T01:21:05;8.70;;;5.30;;
27839;SDS011;15207;42.182;24.308;2023-05-07T01:23:32;7.00;;;5.65;;
27839;SDS011;15207;42.182;24.308;2023-05-07T01:26:00;8.55;;;5.88;;
27839;SDS011;15207;42.182;24.308;2023-05-07T01:28:26;11.55;;;5.25;;
27839;SDS011;15207;42.182;24.308;2023-05-07T01:30:54;9.48;;;5.60;;
27839;SDS011;15207;42.182;24.308;2023-05-07T01:33:26;8.65;;;5.10;;
27839;SDS011;15207;42.182;24.308;2023-05-07T01:35:56;8.95;;;5.35;;
27839;SDS011;15207;42.182;24.308;2023-05-07T01:38:25;10.70;;;5.60;;
27839;SDS011;15207;42.182;24.308;2023-05-07T01:40:52;6.95;;;5.35;;
27839;SDS011;15207;42.182;24.308;2023-05-07T01:43:18;7.15;;;5.00;;
27839;SDS011;15207;42.182;24.308;2023-05-07T01:45:44;7.90;;;5.28;;
27839;SDS011;15207;42.182;24.308;2023-05-07T01:48:10;7.70;;;5.20;;
27839;SDS011;15207;42.182;24.308;2023-05-07T01:50:37;6.90;;;5.10;;
27839;SDS011;15207;42.182;24.308;2023-05-07T01:53:04;7.00;;;4.93;;
27839;SDS011;15207;42.182;24.308;2023-05-07T01:55:30;6.93;;;5.13;;
27839;SDS011;15207;42.182;24.308;2023-05-07T01:57:55;12.80;;;5.40;;
27839;SDS011;15207;42.182;24.308;2023-05-07T02:00:21;8.40;;;5.00;;
27839;SDS011;15207;42.182;24.308;2023-05-07T02:02:47;7.05;;;5.00;;
27839;SDS011;15207;42.182;24.308;2023-05-07T02:05:12;8.15;;;4.90;;
27839;SDS011;15207;42.182;24.308;2023-05-07T02:07:37;5.63;;;4.47;;
27839;SDS011;15207;42.182;24.308;2023-05-07T02:10:03;7.20;;;4.70;;
27839;SDS011;15207;42.182;24.308;2023-05-07T02:12:30;9.17;;;4.73;;
27839;SDS011;15207;42.182;24.308;2023-05-07T02:14:55;9.15;;;5.10;;
27839;SDS011;15207;42.182;24.308;2023-05-07T02:17:21;8.17;;;4.77;;
27839;SDS011;15207;42.182;24.308;2023-05-07T02:19:46;6.45;;;4.40;;
27839;SDS011;15207;42.182;24.308;2023-05-07T02:22:12;8.15;;;5.00;;
27839;SDS011;15207;42.182;24.308;2023-05-07T02:24:37;9.30;;;5.40;;
27839;SDS011;15207;42.182;24.308;2023-05-07T02:27:03;7.90;;;5.82;;
27839;SDS011;15207;42.182;24.308;2023-05-07T02:29:28;7.28;;;4.90;;
27839;SDS011;15207;42.182;24.308;2023-05-07T02:31:54;8.52;;;4.90;;
27839;SDS011;15207;42.182;24.308;2023-05-07T02:34:20;8.35;;;5.25;;
27839;SDS011;15207;42.182;24.308;2023-05-07T02:36:46;6.93;;;5.07;;
27839;SDS011;15207;42.182;24.308;2023-05-07T02:39:12;6.90;;;4.82;;
27839;SDS011;15207;42.182;24.308;2023-05-07T02:41:38;7.30;;;5.10;;
27839;SDS011;15207;42.182;24.308;2023-05-07T02:44:03;8.50;;;5.30;;
27839;SDS011;15207;42.182;24.308;2023-05-07T02:46:29;8.10;;;5.20;;
27839;SDS011;15207;42.182;24.308;2023-05-07T02:48:55;9.05;;;5.45;;
27839;SDS011;15207;42.182;24.308;2023-05-07T02:51:21;7.28;;;4.95;;
27839;SDS011;15207;42.182;24.308;2023-05-07T02:53:47;8.65;;;4.95;;
27839;SDS011;15207;42.182;24.308;2023-05-07T02:56:13;8.95;;;5.53;;
27839;SDS011;15207;42.182;24.308;2023-05-07T02:58:39;6.65;;;4.80;;
27839;SDS011;15207;42.182;24.308;2023-05-07T03:01:05;9.00;;;5.45;;
27839;SDS011;15207;42.182;24.308;2023-05-07T03:03:31;7.80;;;5.05;;
27839;SDS011;15207;42.182;24.308;2023-05-07T03:05:56;8.60;;;5.47;;
27839;SDS011;15207;42.182;24.308;2023-05-07T03:08:22;9.90;;;5.85;;
27839;SDS011;15207;42.182;24.308;2023-05-07T03:10:48;9.80;;;5.50;;
27839;SDS011;15207;42.182;24.308;2023-05-07T03:13:13;8.50;;;5.57;;
27839;SDS011;15207;42.182;24.308;2023-05-07T03:15:39;13.00;;;5.85;;
27839;SDS011;15207;42.182;24.308;2023-05-07T03:18:05;7.47;;;5.33;;
27839;SDS011;15207;42.182;24.308;2023-05-07T03:20:30;8.10;;;5.40;;
27839;SDS011;15207;42.182;24.308;2023-05-07T03:22:56;8.45;;;5.80;;
27839;SDS011;15207;42.182;24.308;2023-05-07T03:25:22;7.77;;;5.00;;
27839;SDS011;15207;42.182;24.308;2023-05-07T03:27:48;8.70;;;5.80;;
27839;SDS011;15207;42.182;24.308;2023-05-07T03:30:13;8.02;;;5.20;;
27839;SDS011;15207;42.182;24.308;2023-05-07T03:32:39;8.45;;;5.20;;
27839;SDS011;15207;42.182;24.308;2023-05-07T03:35:05;8.60;;;5.30;;
27839;SDS011;15207;42.182;24.308;2023-05-07T03:37:31;6.45;;;4.80;;
27839;SDS011;15207;42.182;24.308;2023-05-07T03:39:56;9.35;;;5.60;;
27839;SDS011;15207;42.182;24.308;2023-05-07T03:42:22;8.25;;;5.60;;
27839;SDS011;15207;42.182;24.308;2023-05-07T03:44:47;7.60;;;5.50;;
27839;SDS011;15207;42.182;24.308;2023-05-07T03:47:13;7.85;;;5.55;;
27839;SDS011;15207;42.182;24.308;2023-05-07T03:49:39;7.22;;;5.15;;
27839;SDS011;15207;42.182;24.308;2023-05-07T03:52:05;8.00;;;5.35;;
27839;SDS011;15207;42.182;24.308;2023-05-07T03:54:31;9.17;;;5.57;;
27839;SDS011;15207;42.182;24.308;2023-05-07T03:56:57;8.70;;;5.80;;
27839;SDS011;15207;42.182;24.308;2023-05-07T03:59:22;10.35;;;6.25;;
27839;SDS011;15207;42.182;24.308;2023-05-07T04:01:48;7.43;;;5.43;;
27839;SDS011;15207;42.182;24.308;2023-05-07T04:04:14;9.15;;;5.00;;
27839;SDS011;15207;42.182;24.308;2023-05-07T04:06:40;8.00;;;5.55;;
27839;SDS011;15207;42.182;24.308;2023-05-07T04:09:06;6.40;;;5.30;;
27839;SDS011;15207;42.182;24.308;2023-05-07T04:11:32;8.82;;;5.25;;
27839;SDS011;15207;42.182;24.308;2023-05-07T04:13:57;8.00;;;5.60;;
27839;SDS011;15207;42.182;24.308;2023-05-07T04:16:23;6.20;;;4.50;;
27839;SDS011;15207;42.182;24.308;2023-05-07T04:18:48;7.87;;;5.17;;
27839;SDS011;15207;42.182;24.308;2023-05-07T04:21:18;10.93;;;5.30;;
27839;SDS011;15207;42.182;24.308;2023-05-07T04:23:48;8.17;;;5.37;;
27839;SDS011;15207;42.182;24.308;2023-05-07T04:28:41;8.88;;;5.78;;
27839;SDS011;15207;42.182;24.308;2023-05-07T04:31:07;8.80;;;5.10;;
27839;SDS011;15207;42.182;24.308;2023-05-07T04:33:34;10.95;;;5.15;;
27839;SDS011;15207;42.182;24.308;2023-05-07T04:36:03;7.80;;;4.70;;
27839;SDS011;15207;42.182;24.308;2023-05-07T04:38:32;7.60;;;5.30;;
27839;SDS011;15207;42.182;24.308;2023-05-07T04:41:04;7.70;;;4.80;;
27839;SDS011;15207;42.182;24.308;2023-05-07T04:43:31;5.90;;;4.60;;
27839;SDS011;15207;42.182;24.308;2023-05-07T04:45:57;7.35;;;4.82;;
27839;SDS011;15207;42.182;24.308;2023-05-07T04:48:23;7.37;;;4.70;;
27839;SDS011;15207;42.182;24.308;2023-05-07T04:50:49;6.25;;;4.43;;
27839;SDS011;15207;42.182;24.308;2023-05-07T04:53:15;5.83;;;4.50;;
27839;SDS011;15207;42.182;24.308;2023-05-07T04:55:45;6.63;;;5.07;;
27839;SDS011;15207;42.182;24.308;2023-05-07T04:58:11;6.50;;;5.10;;
27839;SDS011;15207;42.182;24.308;2023-05-07T05:00:37;6.60;;;4.20;;
27839;SDS011;15207;42.182;24.308;2023-05-07T05:03:03;6.50;;;4.75;;
27839;SDS011;15207;42.182;24.308;2023-05-07T05:05:30;5.80;;;4.50;;
27839;SDS011;15207;42.182;24.308;2023-05-07T05:07:55;7.13;;;4.90;;
27839;SDS011;15207;42.182;24.308;2023-05-07T05:10:21;6.85;;;4.70;;
27839;SDS011;15207;42.182;24.308;2023-05-07T05:12:47;8.50;;;4.70;;
27839;SDS011;15207;42.182;24.308;2023-05-07T05:17:38;9.90;;;5.28;;
27839;SDS011;15207;42.182;24.308;2023-05-07T05:20:05;7.40;;;4.80;;
27839;SDS011;15207;42.182;24.308;2023-05-07T05:22:31;7.35;;;4.80;;
27839;SDS011;15207;42.182;24.308;2023-05-07T05:24:57;8.52;;;5.00;;
27839;SDS011;15207;42.182;24.308;2023-05-07T05:27:24;8.30;;;4.75;;
27839;SDS011;15207;42.182;24.308;2023-05-07T05:29:49;7.18;;;4.63;;
27839;SDS011;15207;42.182;24.308;2023-05-07T05:32:15;6.70;;;4.40;;
27839;SDS011;15207;42.182;24.308;2023-05-07T05:34:41;8.90;;;4.60;;
27839;SDS011;15207;42.182;24.308;2023-05-07T05:37:06;5.83;;;4.50;;
27839;SDS011;15207;42.182;24.308;2023-05-07T05:39:32;6.40;;;4.40;;
27839;SDS011;15207;42.182;24.308;2023-05-07T05:41:57;6.05;;;4.40;;
27839;SDS011;15207;42.182;24.308;2023-05-07T05:44:23;8.87;;;4.83;;
27839;SDS011;15207;42.182;24.308;2023-05-07T05:46:49;7.15;;;4.40;;
27839;SDS011;15207;42.182;24.308;2023-05-07T05:49:15;8.03;;;5.40;;
27839;SDS011;15207;42.182;24.308;2023-05-07T05:51:41;9.00;;;4.70;;
27839;SDS011;15207;42.182;24.308;2023-05-07T05:54:06;7.33;;;4.43;;
27839;SDS011;15207;42.182;24.308;2023-05-07T05:56:32;6.20;;;4.40;;
27839;SDS011;15207;42.182;24.308;2023-05-07T05:58:58;9.53;;;4.23;;
27839;SDS011;15207;42.182;24.308;2023-05-07T06:01:24;7.35;;;4.30;;
27839;SDS011;15207;42.182;24.308;2023-05-07T06:03:49;7.07;;;4.63;;
27839;SDS011;15207;42.182;24.308;2023-05-07T06:06:15;5.83;;;4.10;;
27839;SDS011;15207;42.182;24.308;2023-05-07T06:08:40;10.80;;;3.20;;
27839;SDS011;15207;42.182;24.308;2023-05-07T06:11:06;4.30;;;2.80;;
27839;SDS011;15207;42.182;24.308;2023-05-07T06:13:32;4.07;;;2.60;;
27839;SDS011;15207;42.182;24.308;2023-05-07T06:15:58;4.10;;;2.40;;
27839;SDS011;15207;42.182;24.308;2023-05-07T06:18:24;3.55;;;2.15;;
27839;SDS011;15207;42.182;24.308;2023-05-07T06:20:50;2.65;;;2.10;;
27839;SDS011;15207;42.182;24.308;2023-05-07T06:23:16;4.55;;;2.65;;
27839;SDS011;15207;42.182;24.308;2023-05-07T06:25:48;4.30;;;2.40;;
27839;SDS011;15207;42.182;24.308;2023-05-07T06:28:15;7.15;;;2.45;;
27839;SDS011;15207;42.182;24.308;2023-05-07T06:30:41;5.10;;;2.55;;
27839;SDS011;15207;42.182;24.308;2023-05-07T06:33:07;5.45;;;3.30;;
27839;SDS011;15207;42.182;24.308;2023-05-07T06:35:32;3.45;;;2.85;;
27839;SDS011;15207;42.182;24.308;2023-05-07T06:37:58;3.20;;;2.40;;
27839;SDS011;15207;42.182;24.308;2023-05-07T06:40:24;4.55;;;2.90;;
27839;SDS011;15207;42.182;24.308;2023-05-07T06:42:50;3.30;;;2.50;;
27839;SDS011;15207;42.182;24.308;2023-05-07T06:45:15;4.60;;;2.60;;
27839;SDS011;15207;42.182;24.308;2023-05-07T06:47:41;2.95;;;2.30;;
27839;SDS011;15207;42.182;24.308;2023-05-07T06:50:07;3.40;;;2.40;;
27839;SDS011;15207;42.182;24.308;2023-05-07T06:52:33;5.20;;;3.10;;
27839;SDS011;15207;42.182;24.308;2023-05-07T06:54:59;3.60;;;2.60;;
27839;SDS011;15207;42.182;24.308;2023-05-07T06:57:25;7.03;;;2.80;;
27839;SDS011;15207;42.182;24.308;2023-05-07T06:59:50;3.90;;;2.70;;
27839;SDS011;15207;42.182;24.308;2023-05-07T07:02:16;4.30;;;2.70;;
27839;SDS011;15207;42.182;24.308;2023-05-07T07:04:41;3.95;;;2.80;;
27839;SDS011;15207;42.182;24.308;2023-05-07T07:07:07;3.60;;;2.95;;
27839;SDS011;15207;42.182;24.308;2023-05-07T07:09:33;5.20;;;3.20;;
27839;SDS011;15207;42.182;24.308;2023-05-07T07:11:58;7.20;;;2.90;;
27839;SDS011;15207;42.182;24.308;2023-05-07T07:14:24;4.30;;;2.80;;
27839;SDS011;15207;42.182;24.308;2023-05-07T07:16:49;4.30;;;2.80;;
27839;SDS011;15207;42.182;24.308;2023-05-07T07:19:15;3.80;;;2.50;;
27839;SDS011;15207;42.182;24.308;2023-05-07T07:21:41;4.10;;;2.90;;
27839;SDS011;15207;42.182;24.308;2023-05-07T07:24:07;3.10;;;2.80;;
27839;SDS011;15207;42.182;24.308;2023-05-07T07:28:58;5.30;;;3.00;;
27839;SDS011;15207;42.182;24.308;2023-05-07T07:31:23;3.90;;;2.80;;
27839;SDS011;15207;42.182;24.308;2023-05-07T07:33:49;4.65;;;3.35;;
27839;SDS011;15207;42.182;24.308;2023-05-07T07:36:15;7.80;;;3.60;;
27839;SDS011;15207;42.182;24.308;2023-05-07T07:38:41;5.17;;;3.00;;
27839;SDS011;15207;42.182;24.308;2023-05-07T07:41:07;3.15;;;2.60;;
27839;SDS011;15207;42.182;24.308;2023-05-07T07:43:33;4.00;;;2.70;;
27839;SDS011;15207;42.182;24.308;2023-05-07T07:45:59;6.50;;;3.00;;
27839;SDS011;15207;42.182;24.308;2023-05-07T07:48:24;4.65;;;2.95;;
27839;SDS011;15207;42.182;24.308;2023-05-07T07:50:50;4.75;;;2.70;;
27839;SDS011;15207;42.182;24.308;2023-05-07T07:53:19;3.35;;;2.80;;
27839;SDS011;15207;42.182;24.308;2023-05-07T07:55:44;3.30;;;2.60;;
27839;SDS011;15207;42.182;24.308;2023-05-07T07:58:10;4.53;;;2.80;;
27839;SDS011;15207;42.182;24.308;2023-05-07T08:00:36;4.45;;;2.45;;
27839;SDS011;15207;42.182;24.308;2023-05-07T08:03:01;5.13;;;2.70;;
27839;SDS011;15207;42.182;24.308;2023-05-07T08:05:28;3.30;;;2.30;;
27839;SDS011;15207;42.182;24.308;2023-05-07T08:07:54;6.10;;;2.90;;
27839;SDS011;15207;42.182;24.308;2023-05-07T08:10:19;4.50;;;3.15;;
27839;SDS011;15207;42.182;24.308;2023-05-07T08:12:49;3.70;;;2.80;;
27839;SDS011;15207;42.182;24.308;2023-05-07T08:15:15;5.70;;;2.92;;
27839;SDS011;15207;42.182;24.308;2023-05-07T08:17:40;4.97;;;2.70;;
27839;SDS011;15207;42.182;24.308;2023-05-07T08:20:06;7.17;;;2.90;;
27839;SDS011;15207;42.182;24.308;2023-05-07T08:22:33;6.80;;;2.80;;
27839;SDS011;15207;42.182;24.308;2023-05-07T08:25:02;4.50;;;2.70;;
27839;SDS011;15207;42.182;24.308;2023-05-07T08:27:28;4.20;;;2.80;;
27839;SDS011;15207;42.182;24.308;2023-05-07T08:29:54;8.43;;;3.30;;
27839;SDS011;15207;42.182;24.308;2023-05-07T08:32:20;4.45;;;2.60;;
27839;SDS011;15207;42.182;24.308;2023-05-07T08:34:45;4.23;;;2.30;;
27839;SDS011;15207;42.182;24.308;2023-05-07T08:37:11;7.70;;;2.70;;
27839;SDS011;15207;42.182;24.308;2023-05-07T08:39:37;3.90;;;2.60;;
27839;SDS011;15207;42.182;24.308;2023-05-07T08:42:03;3.00;;;2.25;;
27839;SDS011;15207;42.182;24.308;2023-05-07T08:44:31;3.00;;;2.10;;
27839;SDS011;15207;42.182;24.308;2023-05-07T08:49:25;5.05;;;2.60;;
27839;SDS011;15207;42.182;24.308;2023-05-07T08:51:52;4.20;;;2.70;;
27839;SDS011;15207;42.182;24.308;2023-05-07T08:54:18;3.60;;;2.30;;
27839;SDS011;15207;42.182;24.308;2023-05-07T08:56:45;4.75;;;2.80;;
27839;SDS011;15207;42.182;24.308;2023-05-07T08:59:11;3.97;;;2.65;;
27839;SDS011;15207;42.182;24.308;2023-05-07T09:01:36;4.60;;;2.60;;
27839;SDS011;15207;42.182;24.308;2023-05-07T09:04:03;4.10;;;2.10;;
27839;SDS011;15207;42.182;24.308;2023-05-07T09:06:30;4.00;;;2.40;;
27839;SDS011;15207;42.182;24.308;2023-05-07T09:08:56;2.95;;;1.75;;
27839;SDS011;15207;42.182;24.308;2023-05-07T09:11:23;3.40;;;2.10;;
27839;SDS011;15207;42.182;24.308;2023-05-07T09:13:53;3.95;;;2.40;;
27839;SDS011;15207;42.182;24.308;2023-05-07T09:16:21;3.10;;;2.20;;
27839;SDS011;15207;42.182;24.308;2023-05-07T09:18:48;2.90;;;2.40;;
27839;SDS011;15207;42.182;24.308;2023-05-07T09:21:17;4.75;;;2.15;;
27839;SDS011;15207;42.182;24.308;2023-05-07T09:23:43;2.78;;;1.98;;
27839;SDS011;15207;42.182;24.308;2023-05-07T09:26:09;3.05;;;2.15;;
27839;SDS011;15207;42.182;24.308;2023-05-07T09:28:40;3.20;;;1.80;;
27839;SDS011;15207;42.182;24.308;2023-05-07T09:31:10;5.85;;;2.30;;
27839;SDS011;15207;42.182;24.308;2023-05-07T09:33:37;3.60;;;2.30;;
27839;SDS011;15207;42.182;24.308;2023-05-07T09:36:03;2.60;;;1.90;;
27839;SDS011;15207;42.182;24.308;2023-05-07T09:38:31;4.22;;;2.50;;
27839;SDS011;15207;42.182;24.308;2023-05-07T09:43:38;2.80;;;2.00;;
27839;SDS011;15207;42.182;24.308;2023-05-07T09:46:07;4.80;;;2.30;;
27839;SDS011;15207;42.182;24.308;2023-05-07T09:51:06;3.80;;;2.30;;
27839;SDS011;15207;42.182;24.308;2023-05-07T09:53:40;3.60;;;2.30;;
27839;SDS011;15207;42.182;24.308;2023-05-07T09:56:07;6.70;;;2.55;;
27839;SDS011;15207;42.182;24.308;2023-05-07T09:58:33;5.45;;;2.75;;
27839;SDS011;15207;42.182;24.308;2023-05-07T10:01:02;3.30;;;2.60;;
27839;SDS011;15207;42.182;24.308;2023-05-07T10:03:28;3.15;;;2.40;;
27839;SDS011;15207;42.182;24.308;2023-05-07T10:05:57;3.60;;;2.40;;
27839;SDS011;15207;42.182;24.308;2023-05-07T10:08:23;3.07;;;2.10;;
27839;SDS011;15207;42.182;24.308;2023-05-07T10:10:49;2.27;;;1.60;;
27839;SDS011;15207;42.182;24.308;2023-05-07T10:13:16;2.50;;;2.13;;
27839;SDS011;15207;42.182;24.308;2023-05-07T10:15:44;4.05;;;2.15;;
27839;SDS011;15207;42.182;24.308;2023-05-07T10:18:10;2.90;;;2.00;;
27839;SDS011;15207;42.182;24.308;2023-05-07T10:20:37;2.63;;;2.20;;
27839;SDS011;15207;42.182;24.308;2023-05-07T10:23:04;2.45;;;2.00;;
27839;SDS011;15207;42.182;24.308;2023-05-07T10:25:31;5.40;;;2.40;;
27839;SDS011;15207;42.182;24.308;2023-05-07T10:27:59;4.40;;;2.08;;
27839;SDS011;15207;42.182;24.308;2023-05-07T10:30:36;2.90;;;2.00;;
27839;SDS011;15207;42.182;24.308;2023-05-07T10:33:16;4.07;;;2.25;;
27839;SDS011;15207;42.182;24.308;2023-05-07T10:35:44;3.38;;;2.25;;
27839;SDS011;15207;42.182;24.308;2023-05-07T10:38:12;3.95;;;2.10;;
27839;SDS011;15207;42.182;24.308;2023-05-07T10:40:38;2.72;;;2.17;;
27839;SDS011;15207;42.182;24.308;2023-05-07T10:43:04;2.75;;;2.30;;
27839;SDS011;15207;42.182;24.308;2023-05-07T10:45:31;2.25;;;1.90;;
27839;SDS011;15207;42.182;24.308;2023-05-07T10:48:06;3.20;;;2.10;;
27839;SDS011;15207;42.182;24.308;2023-05-07T10:50:34;3.00;;;1.50;;
27839;SDS011;15207;42.182;24.308;2023-05-07T10:55:44;2.20;;;1.70;;
27839;SDS011;15207;42.182;24.308;2023-05-07T10:58:26;3.40;;;2.10;;
27839;SDS011;15207;42.182;24.308;2023-05-07T11:01:01;3.43;;;2.03;;
27839;SDS011;15207;42.182;24.308;2023-05-07T11:03:27;2.40;;;2.10;;
27839;SDS011;15207;42.182;24.308;2023-05-07T11:06:13;2.67;;;1.88;;
27839;SDS011;15207;42.182;24.308;2023-05-07T11:08:52;4.80;;;2.15;;
27839;SDS011;15207;42.182;24.308;2023-05-07T11:11:18;3.00;;;1.80;;
27839;SDS011;15207;42.182;24.308;2023-05-07T11:16:23;3.33;;;2.23;;
27839;SDS011;15207;42.182;24.308;2023-05-07T11:18:50;2.40;;;1.75;;
27839;SDS011;15207;42.182;24.308;2023-05-07T11:21:36;2.10;;;1.80;;
27839;SDS011;15207;42.182;24.308;2023-05-07T11:24:03;2.70;;;2.10;;
27839;SDS011;15207;42.182;24.308;2023-05-07T11:26:31;2.90;;;2.00;;
27839;SDS011;15207;42.182;24.308;2023-05-07T11:29:17;2.30;;;1.77;;
27839;SDS011;15207;42.182;24.308;2023-05-07T11:31:48;1.70;;;1.60;;
27839;SDS011;15207;42.182;24.308;2023-05-07T11:34:19;2.20;;;1.83;;
27839;SDS011;15207;42.182;24.308;2023-05-07T11:36:50;2.25;;;1.60;;
27839;SDS011;15207;42.182;24.308;2023-05-07T11:39:23;3.47;;;1.90;;
27839;SDS011;15207;42.182;24.308;2023-05-07T11:41:59;2.40;;;1.60;;
27839;SDS011;15207;42.182;24.308;2023-05-07T11:44:25;2.93;;;1.83;;
27839;SDS011;15207;42.182;24.308;2023-05-07T11:47:08;2.80;;;1.90;;
27839;SDS011;15207;42.182;24.308;2023-05-07T11:49:34;2.50;;;1.65;;
27839;SDS011;15207;42.182;24.308;2023-05-07T11:52:00;2.25;;;1.40;;
27839;SDS011;15207;42.182;24.308;2023-05-07T11:54:25;2.20;;;1.60;;
27839;SDS011;15207;42.182;24.308;2023-05-07T11:56:51;2.65;;;2.05;;
27839;SDS011;15207;42.182;24.308;2023-05-07T11:59:17;2.85;;;1.65;;
27839;SDS011;15207;42.182;24.308;2023-05-07T12:01:45;2.80;;;1.60;;
27839;SDS011;15207;42.182;24.308;2023-05-07T12:04:11;2.50;;;1.60;;
27839;SDS011;15207;42.182;24.308;2023-05-07T12:06:37;2.88;;;1.60;;
27839;SDS011;15207;42.182;24.308;2023-05-07T12:09:03;2.85;;;1.70;;
27839;SDS011;15207;42.182;24.308;2023-05-07T12:11:32;2.43;;;1.80;;
27839;SDS011;15207;42.182;24.308;2023-05-07T12:13:57;2.70;;;1.90;;
27839;SDS011;15207;42.182;24.308;2023-05-07T12:16:23;2.67;;;1.67;;
27839;SDS011;15207;42.182;24.308;2023-05-07T12:18:48;2.20;;;1.70;;
27839;SDS011;15207;42.182;24.308;2023-05-07T12:21:15;2.00;;;1.80;;
27839;SDS011;15207;42.182;24.308;2023-05-07T12:23:42;3.00;;;1.50;;
27839;SDS011;15207;42.182;24.308;2023-05-07T12:26:08;2.40;;;1.70;;
27839;SDS011;15207;42.182;24.308;2023-05-07T12:28:37;2.95;;;1.75;;
27839;SDS011;15207;42.182;24.308;2023-05-07T12:33:30;2.85;;;1.85;;
27839;SDS011;15207;42.182;24.308;2023-05-07T12:35:57;2.70;;;1.70;;
27839;SDS011;15207;42.182;24.308;2023-05-07T12:38:23;1.80;;;1.70;;
27839;SDS011;15207;42.182;24.308;2023-05-07T12:40:49;2.80;;;1.80;;
27839;SDS011;15207;42.182;24.308;2023-05-07T12:43:19;2.20;;;1.63;;
27839;SDS011;15207;42.182;24.308;2023-05-07T12:45:47;2.25;;;1.80;;
27839;SDS011;15207;42.182;24.308;2023-05-07T12:48:14;2.55;;;1.60;;
27839;SDS011;15207;42.182;24.308;2023-05-07T12:50:39;2.30;;;1.80;;
27839;SDS011;15207;42.182;24.308;2023-05-07T12:53:07;2.25;;;1.90;;
27839;SDS011;15207;42.182;24.308;2023-05-07T12:55:49;2.25;;;1.90;;
27839;SDS011;15207;42.182;24.308;2023-05-07T12:58:18;2.43;;;1.60;;
27839;SDS011;15207;42.182;24.308;2023-05-07T13:00:47;2.30;;;1.65;;
27839;SDS011;15207;42.182;24.308;2023-05-07T13:03:21;2.40;;;1.60;;
27839;SDS011;15207;42.182;24.308;2023-05-07T13:05:55;2.55;;;1.80;;
27839;SDS011;15207;42.182;24.308;2023-05-07T13:08:23;2.30;;;1.70;;
27839;SDS011;15207;42.182;24.308;2023-05-07T13:10:49;2.00;;;1.70;;
27839;SDS011;15207;42.182;24.308;2023-05-07T13:13:15;2.47;;;1.77;;
27839;SDS011;15207;42.182;24.308;2023-05-07T13:15:40;1.90;;;1.70;;
27839;SDS011;15207;42.182;24.308;2023-05-07T13:18:06;3.03;;;1.90;;
27839;SDS011;15207;42.182;24.308;2023-05-07T13:20:31;3.90;;;2.00;;
27839;SDS011;15207;42.182;24.308;2023-05-07T13:22:57;3.80;;;2.00;;
27839;SDS011;15207;42.182;24.308;2023-05-07T13:25:22;3.17;;;1.97;;
27839;SDS011;15207;42.182;24.308;2023-05-07T13:27:48;3.22;;;2.00;;
27839;SDS011;15207;42.182;24.308;2023-05-07T13:30:13;2.20;;;2.00;;
27839;SDS011;15207;42.182;24.308;2023-05-07T13:32:39;2.03;;;1.83;;
27839;SDS011;15207;42.182;24.308;2023-05-07T13:35:05;3.63;;;1.80;;
27839;SDS011;15207;42.182;24.308;2023-05-07T13:37:31;2.60;;;2.00;;
27839;SDS011;15207;42.182;24.308;2023-05-07T13:39:56;3.03;;;2.30;;
27839;SDS011;15207;42.182;24.308;2023-05-07T13:42:22;2.30;;;1.80;;
27839;SDS011;15207;42.182;24.308;2023-05-07T13:44:47;2.47;;;1.80;;
27839;SDS011;15207;42.182;24.308;2023-05-07T13:47:13;1.80;;;1.50;;
27839;SDS011;15207;42.182;24.308;2023-05-07T13:49:38;4.60;;;2.00;;
27839;SDS011;15207;42.182;24.308;2023-05-07T13:52:03;3.90;;;1.90;;
27839;SDS011;15207;42.182;24.308;2023-05-07T13:54:29;2.50;;;1.70;;
27839;SDS011;15207;42.182;24.308;2023-05-07T13:56:54;4.20;;;1.60;;
27839;SDS011;15207;42.182;24.308;2023-05-07T13:59:20;3.55;;;2.05;;
27839;SDS011;15207;42.182;24.308;2023-05-07T14:01:46;2.58;;;2.05;;
27839;SDS011;15207;42.182;24.308;2023-05-07T14:04:12;2.97;;;2.17;;
27839;SDS011;15207;42.182;24.308;2023-05-07T14:06:37;2.53;;;1.80;;
27839;SDS011;15207;42.182;24.308;2023-05-07T14:09:04;2.40;;;1.80;;
27839;SDS011;15207;42.182;24.308;2023-05-07T14:11:29;2.10;;;1.50;;
27839;SDS011;15207;42.182;24.308;2023-05-07T14:13:55;3.35;;;1.85;;
27839;SDS011;15207;42.182;24.308;2023-05-07T14:16:21;2.93;;;1.87;;
27839;SDS011;15207;42.182;24.308;2023-05-07T14:18:47;2.20;;;1.83;;
27839;SDS011;15207;42.182;24.308;2023-05-07T14:21:12;2.10;;;1.70;;
27839;SDS011;15207;42.182;24.308;2023-05-07T14:23:39;1.75;;;1.50;;
27839;SDS011;15207;42.182;24.308;2023-05-07T14:26:04;3.30;;;1.75;;
27839;SDS011;15207;42.182;24.308;2023-05-07T14:28:30;1.90;;;1.50;;
27839;SDS011;15207;42.182;24.308;2023-05-07T14:30:56;3.25;;;2.10;;
27839;SDS011;15207;42.182;24.308;2023-05-07T14:33:21;4.55;;;1.90;;
27839;SDS011;15207;42.182;24.308;2023-05-07T14:35:47;2.20;;;1.80;;
27839;SDS011;15207;42.182;24.308;2023-05-07T14:38:14;3.60;;;1.70;;
27839;SDS011;15207;42.182;24.308;2023-05-07T14:40:40;3.10;;;2.15;;
27839;SDS011;15207;42.182;24.308;2023-05-07T14:43:06;4.70;;;2.00;;
27839;SDS011;15207;42.182;24.308;2023-05-07T14:45:31;2.50;;;2.00;;
27839;SDS011;15207;42.182;24.308;2023-05-07T14:47:57;2.80;;;2.20;;
27839;SDS011;15207;42.182;24.308;2023-05-07T14:50:22;2.80;;;2.10;;
27839;SDS011;15207;42.182;24.308;2023-05-07T14:52:48;2.77;;;1.80;;
27839;SDS011;15207;42.182;24.308;2023-05-07T14:55:14;3.63;;;1.80;;